Time;durP1;ratioP1;P1;durP2;ratioP2;P2;SDS_P1;SDS_P2;PMS_P1;PMS_P2;Temp;Humidity;BMP_temperature;BMP_pressure;BME280_temperature;BME280_humidity;BME280_pressure;Samples;Min_cycle;Max_cycle;Signal;HPM_P1;HPM_P2
2021/06/27 00:02:05;;;;;;;6.18;4.88;;;;;;;16.91;93.01;100971.78;5196641;28;20034;-78
2021/06/27 00:04:36;;;;;;;7.47;5.10;;;;;;;17.03;92.91;100976.38;5190165;28;20180;-78
2021/06/27 00:07:06;;;;;;;8.52;4.95;;;;;;;17.08;90.97;100979.63;5201411;28;20033;-78
2021/06/27 00:09:36;;;;;;;9.80;4.32;;;;;;;16.91;89.22;100977.94;5196181;28;20036;-78
2021/06/27 00:12:08;;;;;;;8.57;4.10;;;;;;;16.80;89.97;100980.28;5191738;28;20040;-78
2021/06/27 00:14:39;;;;;;;8.38;4.35;;;;;;;16.59;91.80;100990.31;5196186;28;20026;-77
2021/06/27 00:17:09;;;;;;;7.40;4.70;;;;;;;16.43;93.31;100995.56;5196722;28;20034;-78
2021/06/27 00:19:39;;;;;;;9.38;5.45;;;;;;;16.30;95.60;100991.81;5200155;28;20022;-78
2021/06/27 00:22:09;;;;;;;6.90;4.88;;;;;;;16.50;93.50;100986.38;5196823;28;20041;-78
2021/06/27 00:24:40;;;;;;;5.03;4.23;;;;;;;16.62;94.30;100977.81;5195318;28;20184;-78
2021/06/27 00:27:11;;;;;;;7.30;4.93;;;;;;;16.74;93.28;100979.75;5199209;28;20312;-79
2021/06/27 00:29:41;;;;;;;8.68;5.30;;;;;;;16.70;94.19;100983.50;5196775;28;20105;-77
2021/06/27 00:32:12;;;;;;;9.07;4.93;;;;;;;16.46;95.07;100982.19;5200301;28;20093;-78
2021/06/27 00:34:42;;;;;;;12.50;4.85;;;;;;;16.38;94.26;100984.38;5198073;28;20596;-78
2021/06/27 00:37:12;;;;;;;11.52;4.43;;;;;;;16.13;93.91;100986.56;5185200;28;20026;-78
2021/06/27 00:39:43;;;;;;;13.00;4.55;;;;;;;15.83;94.70;100977.59;5195126;28;20041;-78
2021/06/27 00:42:13;;;;;;;8.77;4.85;;;;;;;15.90;95.16;100984.22;5201169;28;20373;-78
2021/06/27 00:44:43;;;;;;;8.48;4.20;;;;;;;16.06;95.07;100984.31;5196252;28;20025;-78
2021/06/27 00:47:33;;;;;;;11.63;5.10;;;;;;;16.20;94.26;100987.94;5196196;28;20551;-78
2021/06/27 00:50:06;;;;;;;11.70;4.40;;;;;;;16.26;91.31;100977.09;5194963;28;20034;-79
2021/06/27 00:52:36;;;;;;;14.20;3.55;;;;;;;15.72;91.86;100985.16;5195229;28;20021;-78
2021/06/27 00:55:08;;;;;;;12.70;4.20;;;;;;;15.33;93.37;100992.41;5190211;28;20395;-78
2021/06/27 00:57:42;;;;;;;13.57;4.22;;;;;;;15.21;94.96;100987.69;5195561;28;20514;-77
2021/06/27 01:00:16;;;;;;;12.60;4.47;;;;;;;15.02;96.78;100992.09;5189659;28;20030;-78
2021/06/27 01:02:47;;;;;;;9.90;3.97;;;;;;;15.49;94.60;100989.84;5191648;28;20028;-78
2021/06/27 01:05:20;;;;;;;9.43;4.30;;;;;;;15.31;96.44;100982.84;5188125;28;20040;-76
2021/06/27 01:07:52;;;;;;;7.80;4.80;;;;;;;15.13;97.69;100989.84;5190682;28;20021;-77
2021/06/27 01:10:23;;;;;;;7.00;4.88;;;;;;;15.13;98.89;100995.09;5188556;28;20668;-78
2021/06/27 01:12:53;;;;;;;6.85;4.75;;;;;;;15.09;99.33;100990.91;5190162;28;20026;-80
2021/06/27 01:15:24;;;;;;;7.88;5.32;;;;;;;15.15;100.00;100995.03;5190238;28;20088;-78
2021/06/27 01:17:56;;;;;;;9.77;5.30;;;;;;;15.14;100.00;100994.16;5193949;28;20034;-78
2021/06/27 01:20:30;;;;;;;7.82;5.22;;;;;;;15.29;100.00;100996.13;5191248;28;20415;-78
2021/06/27 01:23:04;;;;;;;7.78;5.15;;;;;;;15.35;99.70;100982.63;5187956;28;20122;-78
2021/06/27 01:25:37;;;;;;;8.00;4.63;;;;;;;15.44;99.43;100992.75;5193391;28;20037;-78
2021/06/27 01:28:09;;;;;;;9.27;4.88;;;;;;;15.59;96.93;100993.75;5190401;28;20478;-80
2021/06/27 01:30:41;;;;;;;8.48;5.30;;;;;;;15.59;96.04;100997.25;5190320;28;20029;-79
2021/06/27 01:33:16;;;;;;;18.02;5.00;;;;;;;15.03;99.00;100996.44;5194033;28;20651;-78
2021/06/27 01:35:48;;;;;;;13.43;5.05;;;;;;;14.74;100.00;100988.19;5190630;28;20033;-80
2021/06/27 01:38:19;;;;;;;17.05;5.50;;;;;;;14.72;100.00;100994.44;5189597;28;20033;-78
2021/06/27 01:40:50;;;;;;;13.27;5.20;;;;;;;14.99;100.00;100987.00;5190127;28;20029;-77
2021/06/27 01:43:23;;;;;;;12.07;5.20;;;;;;;15.33;98.73;100988.94;5188232;28;20555;-78
2021/06/27 01:45:57;;;;;;;10.02;4.95;;;;;;;15.19;97.39;100983.44;5190050;28;20038;-77
2021/06/27 01:48:29;;;;;;;13.50;4.60;;;;;;;15.24;98.48;100987.56;5190515;28;20104;-78
2021/06/27 01:51:02;;;;;;;12.75;4.57;;;;;;;15.23;95.29;100985.84;5189374;28;20026;-78
2021/06/27 01:53:35;;;;;;;21.30;4.50;;;;;;;15.28;94.25;100982.97;5191038;28;20502;-77
2021/06/27 01:56:07;;;;;;;25.65;4.50;;;;;;;15.38;92.93;100984.28;5214315;23;20026;-77
2021/06/27 01:58:50;;;;;;;13.90;4.45;;;;;;;15.20;93.56;100987.75;5206071;28;20204;-77
2021/06/27 02:01:28;;;;;;;11.38;4.38;;;;;;;14.92;95.54;100977.69;5204273;28;20060;-77
2021/06/27 02:03:58;;;;;;;21.33;5.35;;;;;;;14.93;94.62;100987.28;5204969;28;20391;-77
2021/06/27 02:06:30;;;;;;;7.88;4.63;;;;;;;14.83;96.31;100987.78;5203944;28;20065;-78
2021/06/27 02:09:04;;;;;;;13.55;5.20;;;;;;;14.70;97.88;100989.28;5183414;28;20041;-77
2021/06/27 02:11:34;;;;;;;11.15;4.88;;;;;;;15.05;96.68;100983.22;5185552;28;20029;-77
2021/06/27 02:14:05;;;;;;;9.18;5.25;;;;;;;14.67;98.78;100985.91;5185740;28;20387;-77
2021/06/27 02:16:36;;;;;;;10.70;5.25;;;;;;;14.70;99.18;100991.91;5186298;28;20383;-77
2021/06/27 02:19:06;;;;;;;8.77;5.30;;;;;;;14.60;100.00;100987.13;5185966;28;20109;-79
2021/06/27 02:21:37;;;;;;;9.30;5.60;;;;;;;14.71;99.10;100984.84;5185450;28;20116;-79
2021/06/27 02:24:07;;;;;;;8.73;5.30;;;;;;;14.76;98.86;100988.97;5186016;28;20033;-79
2021/06/27 02:26:37;;;;;;;9.23;5.10;;;;;;;14.95;98.14;100985.44;5186634;28;20029;-78
2021/06/27 02:29:08;;;;;;;8.85;5.07;;;;;;;14.78;98.27;100988.94;5183889;28;20254;-79
2021/06/27 02:31:38;;;;;;;13.10;5.38;;;;;;;14.39;100.00;100988.09;5187235;28;20029;-79
2021/06/27 02:34:09;;;;;;;10.02;4.82;;;;;;;14.81;100.00;100981.75;5185540;28;20111;-78
2021/06/27 02:36:39;;;;;;;6.65;4.45;;;;;;;14.88;97.38;100978.72;5187286;28;20037;-78
2021/06/27 02:39:10;;;;;;;9.52;4.28;;;;;;;14.84;97.18;100979.81;5185307;28;20569;-79
2021/06/27 02:41:40;;;;;;;10.80;5.00;;;;;;;14.67;99.30;100992.06;5184952;28;20022;-78
2021/06/27 02:44:10;;;;;;;6.95;4.90;;;;;;;14.45;100.00;100990.44;5184274;28;20025;-79
2021/06/27 02:46:41;;;;;;;8.20;4.60;;;;;;;14.68;100.00;100979.72;5187448;28;20048;-79
2021/06/27 02:49:11;;;;;;;11.00;5.07;;;;;;;14.68;98.10;100982.38;5185238;28;20022;-78
2021/06/27 02:51:41;;;;;;;11.70;4.88;;;;;;;14.78;97.78;100979.22;5187270;28;20026;-79
2021/06/27 02:54:12;;;;;;;8.98;4.88;;;;;;;14.40;100.00;100979.28;5184559;28;20109;-78
2021/06/27 02:56:42;;;;;;;6.70;5.10;;;;;;;14.23;100.00;100971.28;5187221;28;20026;-78
2021/06/27 02:59:12;;;;;;;8.90;5.40;;;;;;;14.21;100.00;100965.22;5186603;28;20399;-78
2021/06/27 03:01:43;;;;;;;11.98;6.10;;;;;;;14.06;100.00;100964.09;5187294;28;20025;-78
2021/06/27 03:04:13;;;;;;;11.37;5.80;;;;;;;14.00;100.00;100971.38;5186456;28;20044;-78
2021/06/27 03:06:43;;;;;;;10.93;5.65;;;;;;;13.92;100.00;100976.13;5187355;28;20345;-78
2021/06/27 03:09:13;;;;;;;10.10;5.57;;;;;;;13.96;100.00;100970.69;5189205;28;20036;-78
2021/06/27 03:11:44;;;;;;;14.82;5.90;;;;;;;14.00;100.00;100969.63;5188768;28;20033;-78
2021/06/27 03:14:14;;;;;;;9.63;5.05;;;;;;;14.13;100.00;100970.81;5188351;28;20030;-78
2021/06/27 03:16:45;;;;;;;9.63;5.55;;;;;;;14.12;100.00;100963.81;5189972;28;20049;-78
2021/06/27 03:19:15;;;;;;;10.25;5.40;;;;;;;14.19;100.00;100964.44;5189819;28;20025;-78
2021/06/27 03:21:45;;;;;;;12.55;5.70;;;;;;;14.32;100.00;100968.25;5191534;28;20052;-78
2021/06/27 03:24:16;;;;;;;9.48;5.75;;;;;;;14.26;100.00;100964.09;5189137;28;20033;-78
2021/06/27 03:26:46;;;;;;;10.23;5.43;;;;;;;14.50;100.00;100963.03;5191359;28;20235;-78
2021/06/27 03:29:16;;;;;;;9.15;5.82;;;;;;;14.44;100.00;100965.06;5190133;28;20025;-79
2021/06/27 03:31:47;;;;;;;25.85;6.07;;;;;;;14.06;100.00;100969.34;5191739;28;20029;-78
2021/06/27 03:34:17;;;;;;;12.35;5.88;;;;;;;14.16;100.00;100965.44;5189119;28;20124;-78
2021/06/27 03:36:47;;;;;;;15.23;5.30;;;;;;;14.59;100.00;100967.84;5190285;28;20040;-79
2021/06/27 03:39:19;;;;;;;11.50;5.10;;;;;;;14.73;98.74;100968.06;5187101;28;20030;-79
2021/06/27 03:41:53;;;;;;;12.98;5.65;;;;;;;14.69;99.20;100970.91;5190350;28;20021;-78
2021/06/27 03:44:25;;;;;;;10.77;5.97;;;;;;;14.94;99.20;100964.44;5188527;28;20396;-78
2021/06/27 03:46:56;;;;;;;9.57;5.90;;;;;;;15.12;97.78;100966.19;5191059;28;20028;-79
2021/06/27 03:49:27;;;;;;;13.07;6.03;;;;;;;15.00;99.27;100966.81;5189352;28;20044;-79
2021/06/27 03:51:57;;;;;;;12.18;5.93;;;;;;;14.35;100.00;100965.47;5191265;28;20021;-79
2021/06/27 03:54:27;;;;;;;13.70;6.15;;;;;;;14.43;100.00;100973.88;5192397;28;20040;-79
2021/06/27 03:56:58;;;;;;;13.77;5.95;;;;;;;14.34;100.00;100969.03;5192385;28;20057;-79
2021/06/27 03:59:28;;;;;;;12.02;5.97;;;;;;;14.62;100.00;100974.75;5192328;28;20483;-79
2021/06/27 04:01:58;;;;;;;14.93;5.63;;;;;;;15.14;98.35;100972.25;5190451;28;20029;-79
2021/06/27 04:04:29;;;;;;;16.63;5.65;;;;;;;15.37;97.01;100970.25;5190815;28;20026;-79
2021/06/27 04:06:59;;;;;;;15.10;5.30;;;;;;;15.13;99.69;100967.91;5190313;28;20117;-79
2021/06/27 04:09:29;;;;;;;13.57;5.68;;;;;;;15.21;99.74;100965.78;5189420;28;20267;-79
2021/06/27 04:12:00;;;;;;;16.17;5.05;;;;;;;15.25;99.97;100962.06;5189665;28;20021;-79
2021/06/27 04:14:30;;;;;;;13.35;5.22;;;;;;;15.60;95.82;100966.47;5192387;28;20058;-79
2021/06/27 04:17:00;;;;;;;24.40;5.50;;;;;;;15.25;98.12;100954.16;5190838;28;20034;-79
2021/06/27 04:19:30;;;;;;;17.17;4.80;;;;;;;15.67;94.53;100957.34;5189940;28;20822;-79
2021/06/27 04:22:01;;;;;;;16.45;5.00;;;;;;;15.82;94.74;100949.50;5191299;28;20388;-79
2021/06/27 04:24:31;;;;;;;13.43;5.13;;;;;;;15.85;94.43;100952.00;5193034;28;20033;-79
2021/06/27 04:27:02;;;;;;;14.55;5.30;;;;;;;15.62;97.29;100952.31;5190046;28;20026;-79
2021/06/27 04:29:32;;;;;;;10.95;5.28;;;;;;;15.42;98.90;100949.81;5192858;28;20519;-79
2021/06/27 04:32:04;;;;;;;18.95;5.65;;;;;;;15.33;100.00;100950.25;5189522;28;20407;-79
2021/06/27 04:34:34;;;;;;;10.20;5.75;;;;;;;15.63;99.90;100951.38;5192920;28;20033;-79
2021/06/27 04:37:05;;;;;;;18.05;6.25;;;;;;;15.49;100.00;100951.22;5189396;28;20028;-79
2021/06/27 04:39:35;;;;;;;10.65;6.25;;;;;;;15.73;100.00;100938.59;5191087;28;20386;-79
2021/06/27 04:42:06;;;;;;;10.65;5.82;;;;;;;17.11;94.22;100939.84;5188661;28;20030;-79
2021/06/27 04:44:36;;;;;;;12.23;5.20;;;;;;;19.22;84.58;100926.78;5192770;28;20455;-79
2021/06/27 04:47:10;;;;;;;11.15;4.60;;;;;;;20.53;77.96;100922.13;5190664;28;20142;-79
2021/06/27 04:49:41;;;;;;;14.38;4.68;;;;;;;21.22;76.19;100923.19;5191326;28;20041;-79
2021/06/27 04:52:11;;;;;;;12.23;4.72;;;;;;;21.80;74.46;100915.25;5190917;28;20060;-79
2021/06/27 04:54:42;;;;;;;9.70;4.07;;;;;;;23.13;70.61;100917.84;5193150;28;20519;-80
2021/06/27 04:57:12;;;;;;;10.32;3.63;;;;;;;24.44;65.26;100912.81;5190460;28;20052;-80
2021/06/27 04:59:42;;;;;;;12.87;3.90;;;;;;;25.79;61.52;100909.28;5192605;28;20025;-80
2021/06/27 05:02:13;;;;;;;9.63;4.50;;;;;;;27.20;57.31;100907.09;5190988;28;20399;-80
2021/06/27 05:04:43;;;;;;;8.23;4.20;;;;;;;27.71;56.69;100918.00;5192918;28;20685;-80
2021/06/27 05:07:13;;;;;;;6.90;4.17;;;;;;;26.49;59.68;100908.88;5191208;28;20280;-80
2021/06/27 05:09:44;;;;;;;7.90;4.50;;;;;;;25.57;62.77;100917.63;5190356;28;20276;-80
2021/06/27 05:12:15;;;;;;;8.30;4.65;;;;;;;26.36;61.37;100913.69;5187027;28;20080;-78
2021/06/27 05:14:45;;;;;;;8.32;4.25;;;;;;;25.92;61.61;100917.03;5189415;28;20032;-78
2021/06/27 05:17:16;;;;;;;9.75;3.88;;;;;;;26.69;62.80;100915.84;5187676;28;20141;-78
2021/06/27 05:19:47;;;;;;;12.27;4.33;;;;;;;26.97;59.08;100913.81;5188960;28;20108;-78
2021/06/27 05:22:18;;;;;;;8.32;3.92;;;;;;;26.30;61.36;100901.72;5183219;28;20300;-78
2021/06/27 05:24:48;;;;;;;9.95;4.32;;;;;;;29.31;56.32;100892.81;5186131;28;20495;-78
2021/06/27 05:27:18;;;;;;;7.72;4.18;;;;;;;28.42;56.44;100903.41;5187734;28;20038;-78
2021/06/27 05:29:48;;;;;;;10.48;3.90;;;;;;;29.30;54.85;100898.38;5188760;28;20026;-78
2021/06/27 05:32:19;;;;;;;8.53;4.07;;;;;;;29.18;54.21;100894.28;5186532;28;20021;-77
2021/06/27 05:34:49;;;;;;;9.87;4.77;;;;;;;28.87;55.38;100898.56;5189104;28;20303;-77
2021/06/27 05:37:19;;;;;;;6.67;3.70;;;;;;;28.78;55.49;100902.22;5187264;28;20026;-77
2021/06/27 05:39:50;;;;;;;8.80;4.25;;;;;;;28.15;57.09;100908.91;5186914;28;20279;-77
2021/06/27 05:42:20;;;;;;;8.40;4.40;;;;;;;27.26;61.55;100903.78;5184362;28;20072;-77
2021/06/27 05:44:50;;;;;;;9.70;4.40;;;;;;;26.59;62.54;100902.47;5184064;28;20037;-77
2021/06/27 05:47:21;;;;;;;9.75;4.70;;;;;;;26.80;60.68;100893.16;5184446;28;20167;-77
2021/06/27 05:49:51;;;;;;;9.75;4.38;;;;;;;27.46;60.14;100897.25;5184024;28;20036;-77
2021/06/27 05:52:21;;;;;;;8.75;5.15;;;;;;;23.51;70.11;100901.34;5184486;28;20033;-77
2021/06/27 05:54:52;;;;;;;9.02;4.75;;;;;;;23.91;69.98;100911.22;5184549;28;20029;-77
2021/06/27 05:57:22;;;;;;;9.23;5.27;;;;;;;24.56;67.95;100898.38;5183682;28;20025;-76
2021/06/27 05:59:52;;;;;;;10.35;4.95;;;;;;;24.28;69.20;100898.22;5187429;28;20350;-77
2021/06/27 06:02:23;;;;;;;12.93;5.10;;;;;;;24.13;70.20;100905.75;5186805;28;20391;-77
2021/06/27 06:04:53;;;;;;;9.75;6.57;;;;;;;24.10;69.91;100906.00;5187642;28;20171;-76
2021/06/27 06:07:23;;;;;;;10.02;6.32;;;;;;;24.05;72.12;100897.53;5187509;28;20037;-77
2021/06/27 06:09:54;;;;;;;12.25;7.00;;;;;;;24.74;70.71;100889.56;5185574;28;20220;-77
2021/06/27 06:12:24;;;;;;;8.00;5.03;;;;;;;25.26;67.21;100893.75;5186208;28;20069;-76
2021/06/27 06:14:54;;;;;;;12.50;5.45;;;;;;;25.26;69.48;100891.09;5189003;28;20104;-77
2021/06/27 06:17:25;;;;;;;6.88;4.72;;;;;;;24.93;70.56;100884.28;5187903;28;20165;-77
2021/06/27 06:19:55;;;;;;;5.87;4.63;;;;;;;24.97;70.66;100879.50;5188515;28;20111;-76
2021/06/27 06:22:27;;;;;;;10.07;5.00;;;;;;;24.18;70.66;100884.81;5183399;28;20293;-77
2021/06/27 06:24:57;;;;;;;5.13;4.45;;;;;;;24.22;71.95;100878.22;5188434;28;20052;-76
2021/06/27 06:27:28;;;;;;;7.75;4.35;;;;;;;25.03;70.71;100874.44;5188795;28;20030;-76
2021/06/27 06:29:58;;;;;;;8.80;4.40;;;;;;;25.65;68.24;100864.16;5189241;28;20609;-76
2021/06/27 06:32:28;;;;;;;5.10;3.70;;;;;;;26.52;65.87;100863.00;5188853;28;20272;-76
2021/06/27 06:34:59;;;;;;;6.57;3.83;;;;;;;26.26;66.61;100864.59;5187469;28;20120;-77
2021/06/27 06:37:29;;;;;;;7.38;4.20;;;;;;;26.22;66.97;100864.09;5187598;28;20030;-76
2021/06/27 06:39:59;;;;;;;5.13;2.70;;;;;;;26.13;64.49;100870.31;5185087;28;20022;-77
2021/06/27 06:42:30;;;;;;;3.05;2.00;;;;;;;26.60;59.06;100868.44;5189610;28;20033;-77
2021/06/27 06:45:00;;;;;;;4.40;1.90;;;;;;;26.43;62.04;100866.50;5193781;28;20086;-77
2021/06/27 06:47:31;;;;;;;2.73;1.83;;;;;;;26.66;60.43;100870.53;5194202;28;20081;-77
2021/06/27 06:50:02;;;;;;;3.33;1.90;;;;;;;27.05;59.13;100876.34;5197008;28;20288;-77
2021/06/27 06:52:32;;;;;;;4.30;1.90;;;;;;;27.17;59.10;100882.38;5190150;28;20018;-77
2021/06/27 06:55:03;;;;;;;3.03;1.87;;;;;;;26.60;59.18;100874.66;5191365;28;20609;-77
2021/06/27 06:57:33;;;;;;;4.55;1.83;;;;;;;27.24;58.09;100875.41;5190700;28;20276;-77
2021/06/27 07:00:05;;;;;;;2.83;1.65;;;;;;;27.18;60.17;100881.38;5195053;28;20536;-77
2021/06/27 07:02:37;;;;;;;3.83;2.10;;;;;;;27.69;57.67;100882.38;5194307;28;20040;-77
2021/06/27 07:05:08;;;;;;;4.93;2.58;;;;;;;28.02;60.01;100878.94;5194869;28;20025;-77
2021/06/27 07:07:40;;;;;;;4.30;2.03;;;;;;;27.99;62.33;100884.63;5192965;28;20029;-77
2021/06/27 07:10:11;;;;;;;4.50;2.05;;;;;;;28.15;58.80;100884.72;5188652;28;20132;-77
2021/06/27 07:12:44;;;;;;;3.47;2.00;;;;;;;28.01;60.23;100882.63;5187768;28;20536;-77
2021/06/27 07:15:15;;;;;;;2.65;1.92;;;;;;;28.73;57.74;100874.09;5196423;28;20498;-77
2021/06/27 07:17:46;;;;;;;2.33;1.80;;;;;;;28.10;60.72;100878.16;5202260;28;20029;-77
2021/06/27 07:20:16;;;;;;;2.53;2.10;;;;;;;27.98;59.46;100879.41;5186324;28;20021;-77
2021/06/27 07:22:49;;;;;;;2.75;1.90;;;;;;;29.12;57.49;100865.34;5185183;28;20313;-77
2021/06/27 07:25:19;;;;;;;3.13;1.80;;;;;;;30.13;56.37;100860.31;5179932;28;20042;-78
2021/06/27 07:27:50;;;;;;;2.40;1.60;;;;;;;29.74;56.35;100856.66;5188941;28;20038;-78
2021/06/27 07:30:20;;;;;;;2.30;1.60;;;;;;;31.18;53.87;100857.03;5190434;28;20029;-78
2021/06/27 07:32:51;;;;;;;2.17;1.65;;;;;;;29.10;57.45;100867.34;5197535;28;20477;-78
2021/06/27 07:35:21;;;;;;;2.43;1.77;;;;;;;29.08;54.82;100864.81;5188674;28;20064;-78
2021/06/27 07:37:51;;;;;;;2.75;1.75;;;;;;;29.93;54.16;100856.28;5187364;28;20041;-78
2021/06/27 07:40:22;;;;;;;3.97;1.80;;;;;;;30.10;55.00;100863.38;5184725;28;20072;-78
2021/06/27 07:42:52;;;;;;;2.33;1.70;;;;;;;29.06;56.35;100877.59;5184381;28;20507;-78
2021/06/27 07:45:22;;;;;;;3.27;1.60;;;;;;;30.04;55.13;100867.59;5182686;28;20379;-78
2021/06/27 07:47:53;;;;;;;4.05;1.60;;;;;;;29.46;52.70;100874.13;5192752;28;20303;-78
2021/06/27 07:50:23;;;;;;;2.43;1.40;;;;;;;30.97;50.57;100864.88;5192775;28;20041;-78
2021/06/27 07:52:54;;;;;;;2.97;1.63;;;;;;;31.56;49.88;100867.69;5186065;28;20280;-78
2021/06/27 07:55:24;;;;;;;4.10;1.58;;;;;;;30.07;52.42;100869.09;5185644;28;20029;-78
2021/06/27 07:57:55;;;;;;;2.67;1.58;;;;;;;32.55;49.13;100860.13;5207938;22;20250;-78
2021/06/27 08:00:25;;;;;;;1.90;1.50;;;;;;;33.03;46.99;100853.06;5205722;28;20037;-78
2021/06/27 08:02:57;;;;;;;2.25;1.58;;;;;;;33.32;46.25;100852.13;5215358;28;20074;-78
2021/06/27 08:05:27;;;;;;;3.78;1.77;;;;;;;32.59;47.57;100862.25;5213956;28;20497;-78
2021/06/27 08:07:58;;;;;;;3.23;1.43;;;;;;;33.13;45.24;100850.03;5199631;28;20026;-78
2021/06/27 08:10:28;;;;;;;2.33;1.33;;;;;;;34.43;44.34;100845.72;5188145;28;20335;-78
2021/06/27 08:12:59;;;;;;;3.50;1.40;;;;;;;32.91;46.87;100856.44;5183442;28;20021;-78
2021/06/27 08:15:30;;;;;;;4.90;1.50;;;;;;;31.52;49.60;100852.84;5178787;28;20116;-78
2021/06/27 08:18:00;;;;;;;2.67;1.30;;;;;;;31.83;50.97;100853.63;5187338;28;20479;-79
2021/06/27 08:20:31;;;;;;;2.50;1.40;;;;;;;31.35;50.56;100862.13;5180862;28;20140;-78
2021/06/27 08:23:01;;;;;;;3.65;1.40;;;;;;;31.96;50.07;100858.41;5185007;28;20365;-78
2021/06/27 08:25:32;;;;;;;2.60;1.50;;;;;;;31.62;50.94;100852.59;5181910;28;20048;-78
2021/06/27 08:28:04;;;;;;;2.83;1.30;;;;;;;31.69;51.02;100854.44;5183525;28;20026;-78
2021/06/27 08:30:34;;;;;;;2.90;1.30;;;;;;;32.46;50.70;100850.41;5191133;28;20484;-78
2021/06/27 08:33:04;;;;;;;1.50;1.20;;;;;;;33.57;46.75;100847.97;5190014;28;20095;-78
2021/06/27 08:35:35;;;;;;;2.05;1.40;;;;;;;33.60;50.66;100848.44;5187533;28;20037;-78
2021/06/27 08:38:06;;;;;;;2.65;1.35;;;;;;;33.98;48.06;100838.13;5188731;28;20045;-78
2021/06/27 08:40:36;;;;;;;2.85;1.50;;;;;;;33.08;49.13;100847.03;5189188;28;20426;-78
2021/06/27 08:43:08;;;;;;;2.38;1.50;;;;;;;34.36;48.30;100850.28;5189810;28;20176;-78
2021/06/27 08:45:53;;;;;;;3.33;1.70;;;;;;;33.63;49.11;100847.22;5190888;28;20071;-79
2021/06/27 08:48:25;;;;;;;2.47;1.60;;;;;;;32.57;50.22;100845.34;5186463;28;20060;-78
2021/06/27 08:50:57;;;;;;;2.85;1.55;;;;;;;32.51;51.15;100848.84;5184690;28;20025;-78
2021/06/27 08:53:28;;;;;;;4.95;1.70;;;;;;;32.42;51.58;100849.13;5183901;28;20434;-78
2021/06/27 08:56:08;;;;;;;2.17;1.50;;;;;;;32.83;51.05;100845.72;5186415;28;20118;-78
2021/06/27 08:58:43;;;;;;;2.58;1.60;;;;;;;32.92;51.21;100836.44;5190037;28;20097;-78
2021/06/27 09:01:13;;;;;;;;;;;;;;;32.45;52.03;100838.75;5188763;28;20041;-78
2021/06/27 09:03:45;;;;;;;2.33;1.70;;;;;;;31.06;50.81;100837.63;5189880;28;20298;-78
2021/06/27 09:06:29;;;;;;;2.33;1.50;;;;;;;32.28;50.11;100831.00;5188109;28;20038;-78
2021/06/27 09:09:18;;;;;;;2.65;1.60;;;;;;;32.02;50.06;100836.84;5180812;28;20555;-78
2021/06/27 09:11:56;;;;;;;1.90;1.45;;;;;;;30.92;52.22;100848.38;5184618;28;20057;-78
2021/06/27 09:14:35;;;;;;;4.18;1.60;;;;;;;32.82;51.07;100840.50;5189435;28;20033;-78
2021/06/27 09:17:17;;;;;;;2.30;1.45;;;;;;;32.53;48.32;100841.34;5188895;28;20033;-78
2021/06/27 09:19:57;;;;;;;1.83;1.40;;;;;;;32.70;50.73;100837.44;5181517;28;20029;-78
2021/06/27 09:22:29;;;;;;;2.05;1.70;;;;;;;32.44;50.38;100836.22;5185246;28;20032;-78
2021/06/27 09:25:21;;;;;;;2.35;1.85;;;;;;;31.29;51.71;100843.94;5189103;28;20071;-78
2021/06/27 09:28:04;;;;;;;2.03;1.70;;;;;;;30.78;48.97;100842.91;5183423;28;20026;-78
2021/06/27 09:30:38;;;;;;;2.75;2.40;;;;;;;29.56;52.75;100856.00;5187795;28;20489;-78
2021/06/27 09:33:14;;;;;;;4.53;2.08;;;;;;;30.50;52.84;100847.03;5188913;28;20025;-78
2021/06/27 09:35:52;;;;;;;3.53;2.20;;;;;;;30.70;50.30;100846.47;5186398;28;20120;-78
2021/06/27 09:38:39;;;;;;;3.08;1.92;;;;;;;32.45;49.91;100832.50;5183694;28;20038;-78
2021/06/27 09:41:18;;;;;;;3.75;1.70;;;;;;;33.59;46.08;100833.19;5181691;28;20060;-78
2021/06/27 09:43:54;;;;;;;2.00;1.77;;;;;;;33.11;47.08;100841.25;5182481;28;20022;-78
2021/06/27 09:46:50;;;;;;;3.05;2.10;;;;;;;31.98;47.70;100840.97;5184743;28;20044;-78
2021/06/27 09:49:26;;;;;;;2.42;1.90;;;;;;;31.23;49.20;100844.63;5182359;28;20046;-78
2021/06/27 09:52:07;;;;;;;2.75;1.98;;;;;;;30.16;51.01;100843.78;5190794;28;20032;-78
2021/06/27 09:54:38;;;;;;;2.92;1.90;;;;;;;29.21;52.63;100843.63;5189525;28;20041;-78
2021/06/27 09:57:08;;;;;;;2.28;2.05;;;;;;;28.71;55.44;100855.47;5186968;28;20125;-78
2021/06/27 09:59:41;;;;;;;3.87;2.30;;;;;;;28.83;57.00;100840.66;5188046;28;20037;-78
2021/06/27 10:02:11;;;;;;;4.05;2.17;;;;;;;28.53;58.58;100845.78;5186919;28;20268;-77
2021/06/27 10:04:42;;;;;;;2.72;2.20;;;;;;;28.16;56.62;100840.69;5188229;28;20422;-78
2021/06/27 10:07:13;;;;;;;3.05;2.20;;;;;;;28.42;59.04;100838.84;5186057;28;20037;-78
2021/06/27 10:09:43;;;;;;;2.93;2.40;;;;;;;28.51;60.01;100835.19;5180218;28;20029;-78
2021/06/27 10:12:20;;;;;;;4.60;2.25;;;;;;;27.66;60.70;100842.38;5176415;28;20033;-78
2021/06/27 10:14:51;;;;;;;3.60;2.08;;;;;;;27.52;61.28;100834.03;5182561;28;20068;-78
2021/06/27 10:17:24;;;;;;;2.67;2.13;;;;;;;27.32;59.63;100830.69;5188209;28;20561;-77
2021/06/27 10:19:56;;;;;;;3.88;2.33;;;;;;;28.15;58.11;100830.94;5189883;28;20558;-78
2021/06/27 10:22:26;;;;;;;5.05;2.60;;;;;;;28.32;58.96;100827.38;5191560;28;20475;-78
2021/06/27 10:24:57;;;;;;;3.50;2.40;;;;;;;28.51;60.65;100824.41;5190426;28;20069;-78
2021/06/27 10:27:28;;;;;;;4.00;2.40;;;;;;;28.37;59.89;100819.69;5192487;28;20033;-78
2021/06/27 10:30:00;;;;;;;4.20;2.28;;;;;;;28.22;62.56;100815.00;5189692;28;20033;-78
2021/06/27 10:32:30;;;;;;;3.53;2.30;;;;;;;28.06;63.32;100814.94;5191487;28;20109;-78
2021/06/27 10:35:09;;;;;;;4.80;2.47;;;;;;;28.12;59.19;100814.31;5191349;28;20334;-78
2021/06/27 10:37:42;;;;;;;3.65;2.72;;;;;;;27.01;62.27;100815.06;5190404;28;20030;-78
2021/06/27 10:40:16;;;;;;;3.53;2.50;;;;;;;26.41;64.27;100817.56;5189242;28;20053;-78
2021/06/27 10:42:50;;;;;;;3.75;2.60;;;;;;;26.40;62.75;100822.09;5184334;28;20053;-77
2021/06/27 10:45:22;;;;;;;3.13;2.55;;;;;;;27.51;57.35;100817.09;5189061;28;20135;-78
2021/06/27 10:47:53;;;;;;;3.28;2.50;;;;;;;27.93;56.20;100810.00;5185032;28;20432;-77
2021/06/27 10:50:51;;;;;;;4.55;2.53;;;;;;;27.26;57.53;100808.97;5191958;28;20144;-77
2021/06/27 10:53:21;;;;;;;3.50;2.40;;;;;;;28.01;56.94;100807.38;5185949;28;20084;-78
2021/06/27 10:55:58;;;;;;;3.75;2.30;;;;;;;27.63;58.87;100812.28;5191738;28;20041;-77
2021/06/27 10:58:38;;;;;;;7.55;2.30;;;;;;;26.93;56.95;100806.97;5186432;28;20157;-78
2021/06/27 11:01:10;;;;;;;3.30;2.40;;;;;;;26.55;57.60;100801.00;5180866;28;20254;-78
2021/06/27 11:03:44;;;;;;;4.15;2.20;;;;;;;27.18;57.01;100793.66;5184895;28;20084;-78
2021/06/27 11:06:18;;;;;;;2.53;1.80;;;;;;;28.16;54.37;100794.97;5181273;28;20312;-78
2021/06/27 11:08:51;;;;;;;5.10;2.15;;;;;;;28.36;56.38;100791.09;5187992;28;20398;-78
2021/06/27 11:11:24;;;;;;;4.60;2.30;;;;;;;28.26;59.40;100795.72;5184494;28;20378;-78
2021/06/27 11:14:18;;;;;;;5.13;2.70;;;;;;;28.35;56.53;100791.25;5183513;28;20040;-78
2021/06/27 11:16:59;;;;;;;6.57;2.30;;;;;;;28.07;56.62;100793.28;5179685;28;20034;-78
2021/06/27 11:19:35;;;;;;;3.08;2.30;;;;;;;27.97;57.26;100787.16;5193038;28;20026;-77
2021/06/27 11:22:20;;;;;;;3.45;2.28;;;;;;;28.03;59.09;100789.22;5192895;28;20036;-77
2021/06/27 11:24:56;;;;;;;2.85;2.33;;;;;;;28.28;54.74;100791.00;5188129;28;20026;-78
2021/06/27 11:27:29;;;;;;;3.15;2.38;;;;;;;28.98;53.29;100786.06;5193214;28;20033;-78
2021/06/27 11:30:20;;;;;;;3.17;2.30;;;;;;;28.43;53.14;100781.34;5191563;28;20052;-79
2021/06/27 11:32:51;;;;;;;3.78;2.22;;;;;;;28.45;55.31;100782.03;5192030;28;20049;-79
2021/06/27 11:35:36;;;;;;;5.53;2.10;;;;;;;28.05;56.24;100781.84;5194669;28;20072;-79
2021/06/27 11:38:08;;;;;;;2.70;1.80;;;;;;;28.10;56.43;100778.69;5193583;28;20028;-80
2021/06/27 11:40:48;;;;;;;4.93;2.10;;;;;;;28.29;56.11;100781.94;5192921;28;20063;-81
2021/06/27 11:43:52;;;;;;;2.90;2.10;;;;;;;28.39;55.52;100780.00;5186441;28;20037;-80
2021/06/27 11:46:29;;;;;;;2.92;2.20;;;;;;;28.23;54.72;100782.59;5194037;28;20034;-80